createdAt,value
2023-03-21T00:00:32.588Z,26.48
2023-03-21T00:01:54.789Z,24.90
2023-03-21T00:03:16.706Z,22.92
2023-03-21T00:04:48.342Z,23.58
2023-03-21T00:07:50.683Z,22.37
2023-03-21T00:09:19.633Z,25.80
2023-03-21T00:10:40.322Z,22.73
2023-03-21T00:12:08.762Z,23.05
2023-03-21T00:13:19.176Z,24.27
2023-03-21T00:14:41.705Z,25.40
2023-03-21T00:16:05.081Z,27.33
2023-03-21T00:17:31.682Z,21.35
2023-03-21T00:18:42.984Z,30.73
2023-03-21T00:20:07.672Z,28.83
2023-03-21T00:22:59.654Z,26.00
2023-03-21T00:24:14.694Z,27.87
2023-03-21T00:25:29.790Z,28.38
2023-03-21T00:26:38.429Z,33.92
2023-03-21T00:28:05.513Z,30.30
2023-03-21T00:29:15.816Z,33.53
2023-03-21T00:30:37.703Z,35.72
2023-03-21T00:31:46.831Z,39.28
2023-03-21T00:33:21.710Z,39.35
2023-03-21T00:34:42.806Z,35.65
2023-03-21T00:36:10.880Z,36.90
2023-03-21T00:37:28.399Z,38.93
2023-03-21T00:38:44.702Z,37.10
2023-03-21T00:39:59.858Z,36.40
2023-03-21T00:41:39.144Z,36.28
2023-03-21T00:42:56.739Z,25.88
2023-03-21T00:44:21.717Z,25.60
2023-03-21T00:45:29.856Z,25.95
2023-03-21T00:47:06.131Z,36.05
2023-03-21T00:48:16.945Z,40.10
2023-03-21T00:49:40.816Z,37.45
2023-03-21T00:50:52.452Z,45.30
2023-03-21T00:52:24.512Z,39.60
2023-03-21T00:53:39.934Z,40.67
2023-03-21T00:55:01.722Z,41.42
2023-03-21T00:56:11.221Z,41.72
2023-03-21T00:57:39.277Z,38.80
2023-03-21T00:58:47.865Z,40.70
2023-03-21T01:00:12.778Z,41.00
2023-03-21T01:01:21.897Z,35.28
2023-03-21T01:02:45.191Z,38.07
2023-03-21T01:04:03.593Z,31.23
2023-03-21T01:05:45.789Z,32.33
2023-03-21T01:06:54.890Z,32.80
2023-03-21T01:08:27.941Z,38.38
2023-03-21T01:09:46.058Z,33.45
2023-03-21T01:11:01.790Z,39.00
2023-03-21T01:12:16.927Z,35.22
2023-03-21T01:13:34.546Z,37.95
2023-03-21T01:14:51.873Z,36.45
2023-03-21T01:16:07.884Z,34.90
2023-03-21T01:17:29.808Z,35.87
2023-03-21T01:18:58.883Z,35.75
2023-03-21T01:20:20.835Z,33.40
2023-03-21T01:21:29.966Z,35.53
2023-03-21T01:22:51.883Z,35.63
2023-03-21T01:24:01.860Z,31.67
2023-03-21T01:25:23.834Z,32.28
2023-03-21T01:26:38.802Z,32.60
2023-03-21T01:28:07.806Z,29.90
2023-03-21T01:29:23.693Z,35.60
2023-03-21T01:30:46.848Z,30.87
2023-03-21T01:31:55.902Z,32.13
2023-03-21T01:33:17.832Z,29.00
2023-03-21T01:34:26.442Z,29.88
2023-03-21T01:35:57.568Z,27.75
2023-03-21T01:37:17.915Z,30.42
2023-03-21T01:38:40.903Z,27.45
2023-03-21T01:39:55.846Z,30.38
2023-03-21T01:41:19.528Z,30.08
2023-03-21T01:42:35.881Z,29.13
2023-03-21T01:43:52.234Z,28.10
2023-03-21T01:45:10.159Z,28.83
2023-03-21T01:47:00.099Z,29.08
2023-03-21T01:48:36.038Z,30.05
2023-03-21T01:50:01.965Z,29.35
2023-03-21T01:51:20.053Z,30.02
2023-03-21T01:52:47.993Z,32.80
2023-03-21T01:54:16.391Z,31.40
2023-03-21T01:55:24.573Z,28.52
2023-03-21T01:56:44.905Z,28.10
2023-03-21T01:58:07.104Z,25.97
2023-03-21T01:59:43.426Z,23.42
2023-03-21T02:01:17.913Z,24.40
2023-03-21T02:02:44.902Z,24.33
2023-03-21T02:04:34.896Z,22.83
2023-03-21T02:06:02.850Z,25.48
2023-03-21T02:07:31.946Z,24.92
2023-03-21T02:08:51.940Z,24.00
2023-03-21T02:10:15.931Z,27.17
2023-03-21T02:11:30.671Z,25.30
2023-03-21T02:12:51.983Z,24.97
2023-03-21T02:14:06.636Z,24.75
2023-03-21T02:15:41.042Z,24.80
2023-03-21T02:17:38.013Z,30.58
2023-03-21T02:19:07.042Z,27.67
2023-03-21T02:20:33.948Z,27.63
2023-03-21T02:22:27.005Z,25.42
2023-03-21T02:24:05.271Z,22.80
2023-03-21T02:25:51.977Z,26.58
2023-03-21T02:27:30.973Z,16.77
2023-03-21T02:29:00.962Z,16.33
2023-03-21T02:30:30.754Z,17.77
2023-03-21T02:32:31.443Z,22.27
2023-03-21T02:34:12.114Z,24.38
2023-03-21T02:36:00.573Z,21.23
2023-03-21T02:37:36.719Z,23.42
2023-03-21T02:38:59.119Z,15.23
2023-03-21T02:40:22.997Z,17.58
2023-03-21T02:42:06.290Z,16.95
2023-03-21T02:43:23.625Z,15.35
2023-03-21T02:44:52.036Z,16.87
2023-03-21T02:46:33.298Z,19.48
2023-03-21T02:48:04.202Z,18.23
2023-03-21T02:49:33.020Z,18.90
2023-03-21T02:51:06.010Z,19.15
2023-03-21T02:52:45.102Z,17.88
2023-03-21T02:54:45.267Z,18.65
2023-03-21T02:56:07.013Z,17.52
2023-03-21T02:57:33.811Z,19.75
2023-03-21T02:59:02.024Z,17.88
2023-03-21T03:00:17.744Z,17.23
2023-03-21T03:01:41.077Z,20.25
2023-03-21T03:03:09.987Z,18.65
2023-03-21T03:04:42.117Z,24.25
2023-03-21T03:06:00.864Z,29.60
2023-03-21T03:07:52.053Z,31.60
2023-03-21T03:09:02.893Z,29.73
2023-03-21T03:10:39.423Z,29.25
2023-03-21T03:12:02.096Z,25.83
2023-03-21T03:13:46.049Z,24.65
2023-03-21T03:15:29.178Z,17.20
2023-03-21T03:17:01.401Z,17.85
2023-03-21T03:18:40.087Z,17.10
2023-03-21T03:20:07.156Z,18.38
2023-03-21T03:21:52.120Z,19.25
2023-03-21T03:23:17.711Z,20.08
2023-03-21T03:24:42.130Z,17.60
2023-03-21T03:26:26.081Z,17.98
2023-03-21T03:27:44.412Z,18.95
2023-03-21T03:29:03.242Z,19.30
2023-03-21T03:30:19.138Z,18.37
2023-03-21T03:32:08.228Z,20.77
2023-03-21T03:33:39.149Z,20.08
2023-03-21T03:35:11.176Z,25.77
2023-03-21T03:36:46.123Z,21.88
2023-03-21T03:38:21.121Z,23.63
2023-03-21T03:39:51.983Z,23.23
2023-03-21T03:43:29.817Z,22.27
2023-03-21T03:44:52.204Z,21.40
2023-03-21T03:46:31.228Z,21.30
2023-03-21T03:48:15.238Z,21.88
2023-03-21T03:50:11.194Z,21.45
2023-03-21T03:51:40.169Z,21.25
2023-03-21T03:53:18.295Z,23.02
2023-03-21T03:54:47.218Z,21.60
2023-03-21T03:55:58.325Z,23.10
2023-03-21T03:57:21.157Z,19.67
2023-03-21T03:58:44.523Z,21.17
2023-03-21T04:00:18.245Z,17.20
2023-03-21T04:01:26.692Z,19.60
2023-03-21T04:02:55.249Z,22.50
2023-03-21T04:04:24.246Z,21.02
2023-03-21T04:05:46.192Z,19.90
2023-03-21T04:07:03.170Z,22.25
2023-03-21T04:08:34.241Z,24.25
2023-03-21T04:10:03.244Z,19.20
2023-03-21T04:11:23.499Z,16.55
2023-03-21T04:12:45.216Z,16.30
2023-03-21T04:14:14.192Z,13.13
2023-03-21T04:15:29.348Z,13.27
2023-03-21T04:16:52.250Z,12.57
2023-03-21T04:18:07.257Z,13.65
2023-03-21T04:19:22.783Z,11.18
2023-03-21T04:20:37.916Z,11.38
2023-03-21T04:21:54.332Z,10.52
2023-03-21T04:23:03.364Z,11.20
2023-03-21T04:24:12.156Z,10.55
2023-03-21T04:25:33.753Z,9.77
2023-03-21T04:26:55.254Z,9.90
2023-03-21T04:28:25.302Z,9.73
2023-03-21T04:29:49.392Z,10.52
2023-03-21T04:31:26.136Z,12.20
2023-03-21T04:32:54.104Z,13.20
2023-03-21T04:34:16.318Z,15.65
2023-03-21T04:35:37.056Z,15.70
2023-03-21T04:36:47.389Z,15.27
2023-03-21T04:38:03.449Z,16.63
2023-03-21T04:39:20.665Z,16.30
2023-03-21T04:40:42.381Z,15.77
2023-03-21T04:41:52.526Z,13.60
2023-03-21T04:43:14.298Z,15.93
2023-03-21T04:44:30.304Z,15.02
2023-03-21T04:45:46.156Z,17.58
2023-03-21T04:47:08.349Z,16.90
2023-03-21T04:48:19.672Z,17.90
2023-03-21T04:49:41.390Z,16.88
2023-03-21T04:50:53.038Z,18.25
2023-03-21T04:52:17.372Z,18.02
2023-03-21T04:53:26.116Z,16.60
2023-03-21T04:54:48.354Z,19.83
2023-03-21T04:55:57.626Z,17.30
2023-03-21T04:57:12.431Z,17.77
2023-03-21T04:58:27.306Z,17.80
2023-03-21T04:59:36.580Z,16.65
2023-03-21T05:00:59.365Z,14.50
2023-03-21T05:02:07.930Z,16.75
2023-03-21T05:03:29.368Z,14.15
2023-03-21T05:04:58.314Z,14.20
2023-03-21T05:06:27.431Z,13.43
2023-03-21T05:07:43.053Z,15.07
2023-03-21T05:09:08.367Z,19.88
2023-03-21T05:10:18.036Z,18.95
2023-03-21T05:11:44.330Z,19.05
2023-03-21T05:12:55.026Z,13.18
2023-03-21T05:14:18.385Z,13.85
2023-03-21T05:15:27.093Z,14.80
2023-03-21T05:16:55.394Z,15.98
2023-03-21T05:18:11.427Z,16.60
2023-03-21T05:19:47.372Z,14.10
2023-03-21T05:20:57.479Z,13.53
2023-03-21T05:22:26.381Z,13.43
2023-03-21T05:23:42.990Z,9.88
2023-03-21T05:25:06.377Z,12.45
2023-03-21T05:26:34.022Z,12.48
2023-03-21T05:28:01.399Z,10.57
2023-03-21T05:29:12.105Z,8.52
2023-03-21T05:30:39.425Z,10.35
2023-03-21T05:31:49.042Z,9.65
2023-03-21T05:33:10.449Z,8.53
2023-03-21T05:34:19.250Z,10.77
2023-03-21T05:35:42.418Z,12.98
2023-03-21T05:36:59.394Z,13.73
2023-03-21T05:38:28.567Z,13.27
2023-03-21T05:39:37.109Z,11.35
2023-03-21T05:41:00.412Z,14.25
2023-03-21T05:42:09.763Z,14.35
2023-03-21T05:43:31.443Z,13.90
2023-03-21T05:44:40.812Z,16.17
2023-03-21T05:46:03.499Z,16.57
2023-03-21T05:47:12.980Z,13.80
2023-03-21T05:48:35.541Z,17.20
2023-03-21T05:50:04.607Z,18.38
2023-03-21T05:51:26.431Z,16.17
2023-03-21T05:52:34.606Z,14.02
2023-03-21T05:54:00.488Z,14.70
2023-03-21T05:55:09.550Z,13.65
2023-03-21T05:56:31.435Z,12.57
2023-03-21T05:57:48.588Z,12.05
2023-03-21T05:59:16.505Z,14.40
2023-03-21T06:00:34.666Z,16.40
2023-03-21T06:02:03.536Z,16.45
2023-03-21T06:03:25.514Z,16.17
2023-03-21T06:04:58.696Z,17.77
2023-03-21T06:06:20.595Z,14.88
2023-03-21T06:07:37.562Z,15.35
2023-03-21T06:08:48.847Z,15.75
2023-03-21T06:10:11.495Z,15.57
2023-03-21T06:11:27.098Z,14.68
2023-03-21T06:13:01.609Z,16.37
2023-03-21T06:14:16.574Z,13.37
2023-03-21T06:15:32.657Z,17.95
2023-03-21T06:16:57.549Z,14.82
2023-03-21T06:18:12.637Z,13.80
2023-03-21T06:19:39.524Z,13.85
2023-03-21T06:21:06.481Z,17.80
2023-03-21T06:22:29.516Z,16.02
2023-03-21T06:23:38.207Z,13.68
2023-03-21T06:24:53.925Z,15.02
2023-03-21T06:26:09.529Z,13.63
2023-03-21T06:27:18.848Z,14.50
2023-03-21T06:28:44.554Z,13.80
2023-03-21T06:29:53.338Z,12.75
2023-03-21T06:31:19.622Z,16.02
2023-03-21T06:32:28.324Z,13.50
2023-03-21T06:33:51.701Z,15.60
2023-03-21T06:35:06.597Z,11.93
2023-03-21T06:36:35.579Z,12.95
2023-03-21T06:38:05.591Z,10.13
2023-03-21T06:39:28.598Z,11.73
2023-03-21T06:40:45.728Z,9.47
2023-03-21T06:42:00.644Z,9.30
2023-03-21T06:43:16.588Z,9.75
2023-03-21T06:44:31.573Z,9.32
2023-03-21T06:45:57.654Z,9.30
2023-03-21T06:47:26.564Z,8.27
2023-03-21T06:48:44.684Z,8.23
2023-03-21T06:50:06.645Z,10.27
2023-03-21T06:51:21.333Z,7.88
2023-03-21T06:52:53.625Z,8.60
2023-03-21T06:54:25.654Z,8.07
2023-03-21T06:55:43.235Z,7.80
2023-03-21T06:57:04.654Z,8.23
2023-03-21T06:58:22.655Z,7.07
2023-03-21T06:59:37.873Z,6.97
2023-03-21T07:00:49.914Z,7.60
2023-03-21T07:02:05.736Z,7.63
2023-03-21T07:03:32.694Z,7.88
2023-03-21T07:05:01.642Z,8.70
2023-03-21T07:06:18.286Z,9.07
2023-03-21T07:07:40.623Z,8.20
2023-03-21T07:08:49.369Z,8.45
2023-03-21T07:10:11.707Z,7.82
2023-03-21T07:11:30.614Z,8.43
2023-03-21T07:12:46.846Z,7.57
2023-03-21T07:14:03.677Z,7.05
2023-03-21T07:15:26.675Z,8.05
2023-03-21T07:16:34.814Z,8.60
2023-03-21T07:17:56.649Z,8.70
2023-03-21T07:19:04.749Z,8.90
2023-03-21T07:20:27.756Z,8.90
2023-03-21T07:21:35.800Z,8.60
2023-03-21T07:22:57.679Z,8.75
2023-03-21T07:24:07.851Z,7.93
2023-03-21T07:25:29.753Z,8.23
2023-03-21T07:26:38.827Z,8.27
2023-03-21T07:28:00.709Z,8.90
2023-03-21T07:29:09.843Z,9.38
2023-03-21T07:30:31.700Z,8.75
2023-03-21T07:31:44.842Z,10.27
2023-03-21T07:33:00.686Z,9.10
2023-03-21T07:34:15.716Z,10.45
2023-03-21T07:35:31.789Z,9.50
2023-03-21T07:36:54.755Z,10.20
2023-03-21T07:38:02.854Z,9.93
2023-03-21T07:39:26.740Z,8.98
2023-03-21T07:40:34.857Z,9.15
2023-03-21T07:41:56.728Z,9.40
2023-03-21T07:43:12.885Z,11.55
2023-03-21T07:44:35.773Z,8.32
2023-03-21T07:45:44.916Z,8.90
2023-03-21T07:47:06.724Z,9.63
2023-03-21T07:48:17.972Z,8.73
2023-03-21T07:49:39.750Z,8.40
2023-03-21T07:50:48.860Z,9.30
2023-03-21T07:52:04.880Z,10.73
2023-03-21T07:53:33.835Z,9.88
2023-03-21T07:55:02.751Z,9.32
2023-03-21T07:56:31.824Z,10.23
2023-03-21T07:57:51.593Z,8.55
2023-03-21T07:59:14.805Z,9.03
2023-03-21T08:00:23.674Z,10.38
2023-03-21T08:01:45.808Z,9.05
2023-03-21T08:03:09.827Z,10.05
2023-03-21T08:04:38.784Z,8.27
2023-03-21T08:05:54.651Z,8.10
2023-03-21T08:07:16.797Z,8.00
2023-03-21T08:08:25.475Z,8.63
2023-03-21T08:09:46.862Z,8.77
2023-03-21T08:10:55.599Z,7.28
2023-03-21T08:12:11.903Z,7.20
2023-03-21T08:13:27.853Z,5.65
2023-03-21T08:14:42.955Z,6.47
2023-03-21T08:15:57.798Z,6.00
2023-03-21T08:17:14.850Z,5.70
2023-03-21T08:18:23.959Z,5.60
2023-03-21T08:19:45.847Z,6.20
2023-03-21T08:21:01.927Z,6.60
2023-03-21T08:22:23.826Z,7.03
2023-03-21T08:23:39.107Z,7.70
2023-03-21T08:24:53.870Z,6.03
2023-03-21T08:26:09.406Z,6.13
2023-03-21T08:27:30.853Z,5.68
2023-03-21T08:28:39.652Z,6.07
2023-03-21T08:30:02.922Z,5.60
2023-03-21T08:31:21.908Z,6.03
2023-03-21T08:32:37.855Z,5.90
2023-03-21T08:33:54.933Z,4.97
2023-03-21T08:35:10.896Z,4.95
2023-03-21T08:36:32.893Z,4.60
2023-03-21T08:37:54.847Z,5.03
2023-03-21T08:39:05.525Z,5.40
2023-03-21T08:40:26.943Z,5.72
2023-03-21T08:41:44.014Z,5.18
2023-03-21T08:42:58.861Z,5.18
2023-03-21T08:44:20.890Z,6.53
2023-03-21T08:45:30.258Z,5.00
2023-03-21T08:46:51.930Z,5.38
2023-03-21T08:48:00.853Z,4.70
2023-03-21T08:49:16.390Z,4.93
2023-03-21T08:50:34.888Z,5.27
2023-03-21T08:51:56.954Z,5.45
2023-03-21T08:53:06.187Z,5.63
2023-03-21T08:54:28.987Z,6.28
2023-03-21T08:55:37.994Z,6.30
2023-03-21T08:56:59.898Z,7.97
2023-03-21T08:58:21.948Z,5.53
2023-03-21T08:59:30.647Z,4.90
2023-03-21T09:00:51.930Z,5.30
2023-03-21T09:02:00.670Z,5.18
2023-03-21T09:03:21.977Z,5.67
2023-03-21T09:04:37.603Z,6.22
2023-03-21T09:06:00.017Z,4.90
2023-03-21T09:07:29.085Z,5.25
2023-03-21T09:08:58.998Z,4.65
2023-03-21T09:10:23.971Z,5.45
2023-03-21T09:11:32.070Z,4.80
2023-03-21T09:12:54.988Z,6.18
2023-03-21T09:14:03.364Z,5.22
2023-03-21T09:15:27.957Z,4.75
2023-03-21T09:16:36.295Z,4.70
2023-03-21T09:18:00.974Z,6.85
2023-03-21T09:19:09.136Z,5.53
2023-03-21T09:20:31.110Z,8.52
2023-03-21T09:21:46.997Z,5.70
2023-03-21T09:22:57.205Z,5.28
2023-03-21T09:24:12.824Z,5.15
2023-03-21T09:25:27.979Z,5.72
2023-03-21T09:26:44.115Z,4.95
2023-03-21T09:27:53.770Z,4.55
2023-03-21T09:29:13.024Z,5.33
2023-03-21T09:30:26.480Z,4.03
2023-03-21T09:31:43.947Z,4.57
2023-03-21T09:33:00.049Z,4.20
2023-03-21T09:34:08.299Z,4.25
2023-03-21T09:35:25.062Z,7.05
2023-03-21T09:36:42.133Z,5.10
2023-03-21T09:37:57.062Z,5.53
2023-03-21T09:39:12.768Z,4.30
2023-03-21T09:40:38.017Z,4.22
2023-03-21T09:42:27.004Z,4.77
2023-03-21T09:43:49.610Z,4.65
2023-03-21T09:45:34.075Z,4.20
2023-03-21T09:47:09.235Z,4.55
2023-03-21T09:48:57.543Z,4.57
2023-03-21T09:50:20.589Z,3.63
2023-03-21T09:51:43.004Z,4.72
2023-03-21T09:53:01.066Z,4.05
2023-03-21T09:54:40.178Z,3.60
2023-03-21T09:55:55.404Z,3.70
2023-03-21T09:57:28.109Z,13.50
2023-03-21T09:58:52.911Z,3.80
2023-03-21T10:00:22.123Z,4.18
2023-03-21T10:01:42.083Z,3.60
2023-03-21T10:02:57.311Z,4.35
2023-03-21T10:04:22.105Z,4.05
2023-03-21T10:05:54.182Z,3.20
2023-03-21T10:07:27.216Z,2.97
2023-03-21T10:08:57.036Z,3.17
2023-03-21T10:10:09.325Z,2.20
2023-03-21T10:11:52.240Z,3.30
2023-03-21T10:13:07.117Z,3.45
2023-03-21T10:14:26.281Z,5.18
2023-03-21T10:15:48.127Z,2.72
2023-03-21T10:17:00.511Z,4.93
2023-03-21T10:18:30.175Z,2.55
2023-03-21T10:19:39.461Z,2.40
2023-03-21T10:21:01.159Z,2.22
2023-03-21T10:22:09.277Z,2.38
2023-03-21T10:23:36.163Z,2.67
2023-03-21T10:24:51.237Z,4.20
2023-03-21T10:26:02.894Z,4.45
2023-03-21T10:27:20.130Z,2.83
2023-03-21T10:28:52.432Z,3.08
2023-03-21T10:30:25.235Z,2.95
2023-03-21T10:31:43.231Z,2.67
2023-03-21T10:33:05.361Z,3.72
2023-03-21T10:34:31.237Z,3.83
2023-03-21T10:35:57.261Z,3.33
2023-03-21T10:37:13.164Z,4.05
2023-03-21T10:38:31.436Z,3.90
2023-03-21T10:39:43.858Z,4.30
2023-03-21T10:40:58.170Z,3.67
2023-03-21T10:42:28.205Z,4.10
2023-03-21T10:43:52.207Z,4.28
2023-03-21T10:45:02.378Z,4.18
2023-03-21T10:46:28.441Z,4.10
2023-03-21T10:47:46.299Z,4.88
2023-03-21T10:49:02.059Z,4.72
2023-03-21T10:50:32.289Z,4.50
2023-03-21T10:52:05.257Z,5.33
2023-03-21T10:53:48.198Z,4.72
2023-03-21T10:55:13.288Z,4.88
2023-03-21T10:56:29.217Z,4.57
2023-03-21T10:58:00.324Z,5.35
2023-03-21T10:59:34.270Z,4.15
2023-03-21T11:01:09.315Z,5.32
2023-03-21T11:02:28.757Z,4.47
2023-03-21T11:03:53.258Z,4.78
2023-03-21T11:05:35.306Z,4.75
2023-03-21T11:07:01.357Z,6.30
2023-03-21T11:08:22.402Z,4.55
2023-03-21T11:10:07.320Z,4.90
2023-03-21T11:11:27.785Z,5.03
2023-03-21T11:12:54.280Z,4.72
2023-03-21T11:14:08.910Z,4.97
2023-03-21T11:15:59.468Z,4.75
2023-03-21T11:17:27.352Z,4.53
2023-03-21T11:18:42.423Z,5.88
2023-03-21T11:20:06.436Z,6.47
2023-03-21T11:21:23.375Z,5.13
2023-03-21T11:22:46.427Z,4.78
2023-03-21T11:24:03.349Z,5.15
2023-03-21T11:25:27.222Z,5.35
2023-03-21T11:26:51.394Z,6.53
2023-03-21T11:28:31.342Z,7.18
2023-03-21T11:29:50.103Z,4.88
2023-03-21T11:31:18.391Z,5.13
2023-03-21T11:32:34.325Z,5.10
2023-03-21T11:34:08.341Z,5.40
2023-03-21T11:35:21.720Z,5.40
2023-03-21T11:36:50.369Z,5.65
2023-03-21T11:37:59.053Z,5.13
2023-03-21T11:39:34.531Z,5.40
2023-03-21T11:41:00.380Z,5.90
2023-03-21T11:42:36.575Z,4.68
2023-03-21T11:43:58.384Z,5.78
2023-03-21T11:45:19.455Z,4.55
2023-03-21T11:46:37.461Z,8.80
2023-03-21T11:47:47.485Z,5.43
2023-03-21T11:49:12.365Z,4.70
2023-03-21T11:50:37.626Z,6.10
2023-03-21T11:51:55.520Z,5.72
2023-03-21T11:53:47.360Z,5.28
2023-03-21T11:55:05.783Z,6.55
2023-03-21T11:56:53.429Z,4.88
2023-03-21T11:58:55.438Z,4.78
2023-03-21T12:00:36.399Z,5.00
2023-03-21T12:02:07.373Z,5.38
2023-03-21T12:04:03.481Z,6.95
2023-03-21T12:05:37.766Z,6.07
2023-03-21T12:07:24.455Z,6.00
2023-03-21T12:08:53.292Z,4.82
2023-03-21T12:10:25.956Z,5.88
2023-03-21T12:12:09.550Z,5.32
2023-03-21T12:13:31.995Z,5.03
2023-03-21T12:14:47.837Z,5.15
2023-03-21T12:16:18.985Z,5.00
2023-03-21T12:18:05.040Z,5.85
2023-03-21T12:19:21.630Z,5.03
2023-03-21T12:20:45.260Z,5.63
2023-03-21T12:22:08.079Z,5.25
2023-03-21T12:23:40.731Z,6.07
2023-03-21T12:24:55.105Z,5.53
2023-03-21T12:26:04.221Z,5.53
2023-03-21T12:27:21.459Z,5.53
2023-03-21T12:29:00.309Z,5.03
2023-03-21T12:30:29.747Z,4.63
2023-03-21T12:31:34.283Z,6.47
2023-03-21T12:32:42.188Z,5.22
2023-03-21T12:34:17.299Z,4.30
2023-03-21T12:35:23.711Z,5.25
2023-03-21T12:36:37.795Z,5.43
2023-03-21T12:38:02.210Z,6.10
2023-03-21T12:39:23.622Z,5.85
2023-03-21T12:40:43.613Z,5.05
2023-03-21T12:42:06.742Z,5.63
2023-03-21T12:43:20.921Z,5.68
2023-03-21T12:44:26.150Z,5.82
2023-03-21T12:45:45.870Z,5.93
2023-03-21T12:46:55.482Z,5.53
2023-03-21T12:48:17.452Z,5.18
2023-03-21T12:49:38.551Z,5.97
2023-03-21T12:50:40.950Z,5.78
2023-03-21T12:51:48.190Z,6.15
2023-03-21T12:52:59.165Z,5.40
2023-03-21T12:54:32.847Z,6.22
2023-03-21T12:55:36.172Z,5.65
2023-03-21T12:56:58.059Z,5.50
2023-03-21T12:58:25.541Z,5.40
2023-03-21T12:59:34.022Z,6.13
2023-03-21T13:00:50.102Z,5.57
2023-03-21T13:01:56.091Z,6.82
2023-03-21T13:03:03.817Z,5.32
2023-03-21T13:04:30.758Z,6.60
2023-03-21T13:05:43.681Z,5.35
2023-03-21T13:06:49.073Z,5.60
2023-03-21T13:07:58.208Z,5.63
2023-03-21T13:09:14.644Z,5.03
2023-03-21T13:10:21.177Z,5.78
2023-03-21T13:11:27.422Z,5.67
2023-03-21T13:12:40.961Z,5.32
2023-03-21T13:14:06.736Z,6.78
2023-03-21T13:15:28.722Z,6.65
2023-03-21T13:16:39.535Z,5.18
2023-03-21T13:17:56.172Z,5.32
2023-03-21T13:19:23.677Z,6.93
2023-03-21T13:20:50.094Z,5.75
2023-03-21T13:22:07.793Z,5.20
2023-03-21T13:23:09.862Z,6.03
2023-03-21T13:24:17.857Z,5.77
2023-03-21T13:25:22.241Z,6.00
2023-03-21T13:26:34.239Z,6.35
2023-03-21T13:27:39.463Z,5.88
2023-03-21T13:28:42.355Z,7.72
2023-03-21T13:29:51.910Z,5.75
2023-03-21T13:30:54.173Z,6.10
2023-03-21T13:32:10.819Z,6.50
2023-03-21T13:33:24.700Z,6.38
2023-03-21T13:34:27.058Z,5.38
2023-03-21T13:35:42.539Z,6.60
2023-03-21T13:36:50.410Z,5.35
2023-03-21T13:38:13.646Z,8.77
2023-03-21T13:39:24.415Z,6.32
2023-03-21T13:40:38.801Z,5.95
2023-03-21T13:41:44.076Z,5.55
2023-03-21T13:42:55.412Z,5.53
2023-03-21T13:44:03.158Z,6.10
2023-03-21T13:45:12.583Z,5.75
2023-03-21T13:46:52.300Z,7.65
2023-03-21T13:48:00.669Z,5.33
2023-03-21T13:49:15.527Z,6.57
2023-03-21T13:50:20.464Z,6.97
2023-03-21T13:51:28.656Z,6.85
2023-03-21T13:52:30.668Z,8.30
2023-03-21T13:53:40.460Z,8.48
2023-03-21T13:54:49.678Z,5.90
2023-03-21T13:56:27.102Z,21.23
2023-03-21T13:57:32.132Z,7.68
2023-03-21T13:58:37.071Z,8.95
2023-03-21T13:59:45.116Z,7.13
2023-03-21T14:01:11.910Z,8.57
2023-03-21T14:02:33.469Z,6.10
2023-03-21T14:03:35.947Z,6.18
2023-03-21T14:04:42.810Z,4.93
2023-03-21T14:05:50.808Z,7.15
2023-03-21T14:07:07.067Z,7.22
2023-03-21T14:08:24.778Z,8.57
2023-03-21T14:09:44.546Z,5.50
2023-03-21T14:10:52.436Z,5.90
2023-03-21T14:11:58.739Z,6.00
2023-03-21T14:13:07.785Z,6.78
2023-03-21T14:14:10.407Z,6.03
2023-03-21T14:15:19.274Z,7.03
2023-03-21T14:16:26.026Z,5.50
2023-03-21T14:17:34.346Z,6.40
2023-03-21T14:18:55.473Z,6.55
2023-03-21T14:20:08.186Z,6.47
2023-03-21T14:21:24.887Z,6.47
2023-03-21T14:22:28.353Z,7.55
2023-03-21T14:23:30.389Z,7.03
2023-03-21T14:24:33.012Z,7.05
2023-03-21T14:25:46.856Z,5.57
2023-03-21T14:26:53.617Z,5.80
2023-03-21T14:28:00.096Z,5.68
2023-03-21T14:29:22.957Z,5.97
2023-03-21T14:30:35.339Z,6.90
2023-03-21T14:31:39.516Z,6.03
2023-03-21T14:32:42.858Z,8.20
2023-03-21T14:33:54.181Z,7.80
2023-03-21T14:34:59.508Z,5.30
2023-03-21T14:36:09.045Z,5.80
2023-03-21T14:37:11.470Z,6.35
2023-03-21T14:38:25.546Z,5.68
2023-03-21T14:39:30.841Z,6.38
2023-03-21T14:40:32.968Z,7.63
2023-03-21T14:41:54.781Z,7.53
2023-03-21T14:42:57.416Z,6.57
2023-03-21T14:44:11.815Z,5.85
2023-03-21T14:45:29.383Z,7.43
2023-03-21T14:46:31.476Z,6.00
2023-03-21T14:47:33.485Z,6.07
2023-03-21T14:48:36.009Z,8.32
2023-03-21T14:49:38.765Z,5.63
2023-03-21T14:50:49.244Z,6.43
2023-03-21T14:51:54.036Z,8.05
2023-03-21T14:52:56.234Z,6.57
2023-03-21T14:53:58.406Z,6.28
2023-03-21T14:55:01.774Z,5.93
2023-03-21T14:56:27.128Z,7.00
2023-03-21T14:57:32.579Z,6.17
2023-03-21T14:58:38.324Z,6.25
2023-03-21T14:59:42.131Z,7.30
2023-03-21T15:00:47.841Z,5.95
2023-03-21T15:01:52.663Z,5.82
2023-03-21T15:02:58.096Z,6.85
2023-03-21T15:04:04.131Z,7.47
2023-03-21T15:05:14.617Z,8.80
2023-03-21T15:06:17.551Z,7.68
2023-03-21T15:07:32.503Z,8.18
2023-03-21T15:08:34.606Z,6.30
2023-03-21T15:09:36.646Z,7.65
2023-03-21T15:10:38.990Z,7.10
2023-03-21T15:11:41.124Z,7.35
2023-03-21T15:12:55.773Z,5.97
2023-03-21T15:14:01.089Z,6.65
2023-03-21T15:15:03.701Z,6.65
2023-03-21T15:16:07.327Z,7.47
2023-03-21T15:17:10.965Z,7.45
2023-03-21T15:18:17.591Z,6.40
2023-03-21T15:19:27.159Z,6.23
2023-03-21T15:20:32.602Z,9.60
2023-03-21T15:21:44.373Z,6.65
2023-03-21T15:22:54.462Z,6.88
2023-03-21T15:24:13.513Z,6.07
2023-03-21T15:25:22.368Z,6.70
2023-03-21T15:26:26.466Z,6.78
2023-03-21T15:27:32.046Z,5.88
2023-03-21T15:28:35.362Z,7.38
2023-03-21T15:29:37.395Z,6.40
2023-03-21T15:30:51.240Z,6.47
2023-03-21T15:31:53.798Z,9.60
2023-03-21T15:32:57.585Z,7.25
2023-03-21T15:33:59.750Z,8.32
2023-03-21T15:35:16.618Z,8.13
2023-03-21T15:36:25.641Z,7.78
2023-03-21T15:37:28.739Z,7.45
2023-03-21T15:38:36.821Z,5.80
2023-03-21T15:39:38.846Z,7.00
2023-03-21T15:40:41.246Z,8.50
2023-03-21T15:42:04.369Z,7.00
2023-03-21T15:43:18.011Z,6.43
2023-03-21T15:44:22.225Z,6.30
2023-03-21T15:45:26.518Z,7.20
2023-03-21T15:46:42.053Z,6.05
2023-03-21T15:47:50.251Z,6.07
2023-03-21T15:49:08.330Z,8.23
2023-03-21T15:50:21.534Z,6.72
2023-03-21T15:51:24.284Z,9.00
2023-03-21T15:52:26.926Z,7.40
2023-03-21T15:53:33.382Z,7.53
2023-03-21T15:54:50.966Z,6.53
2023-03-21T15:55:57.374Z,8.77
2023-03-21T15:57:09.574Z,7.85
2023-03-21T15:58:20.672Z,7.55
2023-03-21T15:59:27.486Z,6.97
2023-03-21T16:00:42.343Z,18.83
2023-03-21T16:03:18.299Z,6.10
2023-03-21T16:04:20.658Z,7.10
2023-03-21T16:05:31.575Z,7.53
2023-03-21T16:06:36.635Z,9.63
2023-03-21T16:07:45.667Z,7.25
2023-03-21T16:08:49.945Z,7.32
2023-03-21T16:10:01.043Z,6.15
2023-03-21T16:11:17.161Z,6.05
2023-03-21T16:12:19.175Z,6.40
2023-03-21T16:13:21.118Z,6.10
2023-03-21T16:14:24.628Z,6.28
2023-03-21T16:15:27.308Z,8.85
2023-03-21T16:16:30.632Z,7.53
2023-03-21T16:17:37.949Z,6.57
2023-03-21T16:18:40.272Z,8.20
2023-03-21T16:19:43.391Z,7.57
2023-03-21T16:20:47.208Z,6.47
2023-03-21T16:21:49.490Z,7.60
2023-03-21T16:22:51.623Z,7.22
2023-03-21T16:23:54.484Z,26.52
2023-03-21T16:24:56.596Z,7.57
2023-03-21T16:25:59.042Z,8.43
2023-03-21T16:27:01.268Z,6.70
2023-03-21T16:28:03.416Z,8.07
2023-03-21T16:29:08.455Z,7.15
2023-03-21T16:30:13.022Z,9.00
2023-03-21T16:31:20.933Z,7.70
2023-03-21T16:32:24.036Z,7.43
2023-03-21T16:33:26.075Z,8.45
2023-03-21T16:34:29.061Z,8.10
2023-03-21T16:35:31.098Z,6.00
2023-03-21T16:36:37.199Z,7.30
2023-03-21T16:37:40.435Z,7.90
2023-03-21T16:38:42.587Z,7.00
2023-03-21T16:39:44.573Z,8.50
2023-03-21T16:40:46.653Z,7.45
2023-03-21T16:41:48.836Z,6.97
2023-03-21T16:42:51.067Z,7.82
2023-03-21T16:43:53.625Z,8.68
2023-03-21T16:44:55.848Z,7.38
2023-03-21T16:45:57.948Z,7.32
2023-03-21T16:47:02.230Z,7.63
2023-03-21T16:48:04.772Z,7.63
2023-03-21T16:49:20.634Z,6.57
2023-03-21T16:50:31.092Z,6.60
2023-03-21T16:51:36.267Z,8.07
2023-03-21T16:52:38.286Z,8.82
2023-03-21T16:53:40.297Z,8.90
2023-03-21T16:54:43.199Z,7.15
2023-03-21T16:55:45.368Z,7.25
2023-03-21T16:56:50.632Z,6.38
2023-03-21T16:57:53.857Z,7.40
2023-03-21T16:58:56.689Z,6.67
2023-03-21T16:59:58.803Z,8.85
2023-03-21T17:01:01.171Z,7.28
2023-03-21T17:02:11.656Z,6.75
2023-03-21T17:03:19.120Z,7.45
2023-03-21T17:04:22.123Z,7.85
2023-03-21T17:05:26.260Z,7.90
2023-03-21T17:06:30.326Z,7.78
2023-03-21T17:07:32.327Z,7.75
2023-03-21T17:08:34.316Z,13.07
2023-03-21T17:09:36.475Z,7.53
2023-03-21T17:10:38.579Z,8.10
2023-03-21T17:11:41.700Z,9.35
2023-03-21T17:12:43.704Z,7.38
2023-03-21T17:13:46.687Z,7.68
2023-03-21T17:14:48.655Z,7.38